Time;durP1;ratioP1;P1;durP2;ratioP2;P2;SDS_P1;SDS_P2;PMS_P1;PMS_P2;Temp;Humidity;BMP_temperature;BMP_pressure;BME280_temperature;BME280_humidity;BME280_pressure;Samples;Min_cycle;Max_cycle;Signal;HPM_P1;HPM_P2
2021/01/30 00:02:16;;;;;;;4.22;2.88;;;;;;;7.82;86.31;97511.59;5001169;28;20226;-80
2021/01/30 00:04:42;;;;;;;6.13;3.10;;;;;;;7.71;85.75;97508.09;4997907;28;20260;-80
2021/01/30 00:07:09;;;;;;;6.55;3.25;;;;;;;7.72;85.32;97515.16;4994565;28;20218;-80
2021/01/30 00:09:35;;;;;;;4.05;2.40;;;;;;;7.70;84.82;97498.34;4978295;28;20214;-82
2021/01/30 00:12:02;;;;;;;5.00;2.80;;;;;;;7.65;84.24;97500.56;4990428;28;20226;-80
2021/01/30 00:14:35;;;;;;;7.93;2.75;;;;;;;7.65;83.46;97501.38;5000252;28;20255;-81
2021/01/30 00:17:04;;;;;;;5.22;2.67;;;;;;;7.58;83.28;97502.84;4989199;28;20187;-81
2021/01/30 00:19:32;;;;;;;4.20;2.17;;;;;;;7.62;83.22;97500.78;4993840;28;20237;-80
2021/01/30 00:22:12;;;;;;;3.20;2.90;;;;;;;7.60;83.34;97497.38;5004560;28;20317;-79
2021/01/30 00:24:42;;;;;;;2.80;1.80;;;;;;;7.60;83.14;97494.72;4996455;28;20234;-81
2021/01/30 00:27:12;;;;;;;2.80;1.83;;;;;;;7.66;82.62;97491.56;5007999;28;20241;-78
2021/01/30 00:29:38;;;;;;;2.42;1.85;;;;;;;7.66;82.32;97481.69;5001309;28;20223;-80
2021/01/30 00:32:05;;;;;;;2.55;1.63;;;;;;;7.70;81.91;97493.00;5011256;28;20179;-80
2021/01/30 00:34:34;;;;;;;4.03;1.77;;;;;;;7.72;81.01;97491.91;4992984;28;20238;-78
2021/01/30 00:37:13;;;;;;;2.35;1.73;;;;;;;7.74;81.01;97495.31;4999048;28;20218;-80
2021/01/30 00:39:39;;;;;;;1.50;1.30;;;;;;;7.73;80.59;97490.09;4997831;28;20227;-81
2021/01/30 00:42:07;;;;;;;5.32;2.05;;;;;;;7.71;80.81;97489.38;5002954;28;20215;-79
2021/01/30 00:44:34;;;;;;;4.00;1.77;;;;;;;7.71;81.02;97492.03;4997667;28;20226;-78
2021/01/30 00:47:02;;;;;;;2.33;1.70;;;;;;;7.71;81.44;97484.84;4992959;28;20267;-81
2021/01/30 00:49:29;;;;;;;1.95;1.58;;;;;;;7.67;82.31;97499.47;4990924;28;20227;-80
2021/01/30 00:51:56;;;;;;;6.88;2.47;;;;;;;7.63;83.18;97502.47;4982999;28;20223;-79
2021/01/30 00:54:24;;;;;;;5.53;3.20;;;;;;;7.63;82.92;97497.13;5006964;28;20235;-78
2021/01/30 00:56:54;;;;;;;2.33;2.10;;;;;;;7.70;82.91;97493.00;5000462;28;20214;-79
2021/01/30 00:59:24;;;;;;;6.38;1.92;;;;;;;7.67;82.89;97485.22;4993494;28;20179;-81
2021/01/30 01:01:51;;;;;;;3.20;2.30;;;;;;;7.77;83.41;97497.75;4982147;28;20211;-80
2021/01/30 01:04:25;;;;;;;3.60;2.30;;;;;;;7.75;82.43;97496.16;4995353;28;20233;-80
2021/01/30 01:06:51;;;;;;;5.72;2.20;;;;;;;7.76;82.12;97487.16;5007340;28;20222;-81
2021/01/30 01:09:19;;;;;;;6.78;1.92;;;;;;;7.78;81.56;97503.97;4974497;28;20226;-81
2021/01/30 01:11:48;;;;;;;5.78;1.90;;;;;;;7.82;81.79;97494.69;5009717;28;20359;-81
2021/01/30 01:14:15;;;;;;;2.60;2.00;;;;;;;7.79;81.40;97513.69;4990264;28;20290;-80
2021/01/30 01:16:41;;;;;;;3.88;2.13;;;;;;;7.77;80.99;97511.13;4995213;28;20237;-79
2021/01/30 01:19:07;;;;;;;4.07;2.05;;;;;;;7.77;80.61;97511.13;5003463;28;20247;-80
2021/01/30 01:21:33;;;;;;;3.67;1.60;;;;;;;7.83;80.66;97510.63;5010130;28;20235;-80
2021/01/30 01:23:59;;;;;;;3.55;2.25;;;;;;;7.91;80.39;97510.03;5000571;28;20258;-80
2021/01/30 01:26:26;;;;;;;3.33;1.70;;;;;;;7.90;80.54;97511.00;5007615;28;20202;-81
2021/01/30 01:28:52;;;;;;;3.97;1.80;;;;;;;7.85;80.88;97503.31;4995416;28;20211;-77
2021/01/30 01:31:19;;;;;;;2.40;2.20;;;;;;;7.72;81.93;97496.41;4995260;28;20243;-82
2021/01/30 01:33:46;;;;;;;2.00;1.80;;;;;;;7.78;82.34;97507.47;4992913;28;20798;-80
2021/01/30 01:36:14;;;;;;;3.17;1.90;;;;;;;7.70;83.06;97503.69;4980632;28;20233;-82
2021/01/30 01:38:49;;;;;;;2.78;1.77;;;;;;;7.60;83.84;97508.91;4979960;28;20221;-79
2021/01/30 01:41:16;;;;;;;4.55;2.00;;;;;;;7.60;84.58;97498.22;4993708;28;20201;-79
2021/01/30 01:43:42;;;;;;;3.22;2.38;;;;;;;7.65;84.86;97500.56;5000172;28;20242;-80
2021/01/30 01:46:23;;;;;;;5.82;2.10;;;;;;;7.67;84.82;97503.94;4972777;28;20262;-80
2021/01/30 01:49:02;;;;;;;5.13;2.10;;;;;;;7.67;85.31;97493.25;4982887;28;20230;-80
2021/01/30 01:51:34;;;;;;;4.15;2.10;;;;;;;7.65;85.79;97496.03;4982714;28;20602;-81
2021/01/30 01:54:05;;;;;;;4.90;2.60;;;;;;;7.64;85.76;97506.84;4981584;28;20301;-80
2021/01/30 01:56:36;;;;;;;5.13;2.60;;;;;;;7.58;86.70;97507.38;4994758;28;20191;-81
2021/01/30 01:59:08;;;;;;;3.60;2.22;;;;;;;7.55;86.46;97510.28;4972685;28;20205;-81
2021/01/30 02:01:36;;;;;;;8.27;2.45;;;;;;;7.64;86.12;97502.38;4989301;28;20241;-80
2021/01/30 02:04:07;;;;;;;5.63;2.58;;;;;;;7.67;86.31;97499.47;4998859;28;20269;-81
2021/01/30 02:06:36;;;;;;;3.67;2.30;;;;;;;7.67;86.64;97499.47;4982540;28;20280;-81
2021/01/30 02:09:06;;;;;;;4.75;2.42;;;;;;;7.60;87.00;97498.22;4978150;28;20310;-81
2021/01/30 02:11:32;;;;;;;6.28;2.45;;;;;;;7.56;86.89;97501.28;4966474;28;20187;-81
2021/01/30 02:13:59;;;;;;;9.23;2.47;;;;;;;7.53;87.34;97488.16;4999613;28;20221;-81
2021/01/30 02:16:35;;;;;;;2.67;2.20;;;;;;;7.58;87.36;97488.66;4981623;28;20295;-81
2021/01/30 02:19:40;;;;;;;3.05;2.15;;;;;;;7.57;87.59;97481.56;4980291;28;20309;-81
2021/01/30 02:22:28;;;;;;;4.70;2.25;;;;;;;7.59;87.43;97483.16;4998291;28;20233;-82
2021/01/30 02:25:13;;;;;;;4.05;2.85;;;;;;;7.58;87.96;97478.78;5003005;28;20266;-82
2021/01/30 02:28:16;;;;;;;3.13;2.40;;;;;;;7.55;88.26;97467.47;4985995;28;20260;-82
2021/01/30 02:31:20;;;;;;;5.32;2.45;;;;;;;7.57;88.50;97460.19;4997210;28;20286;-79
2021/01/30 02:33:59;;;;;;;2.78;2.35;;;;;;;7.54;88.79;97466.63;5002802;28;20277;-80
2021/01/30 02:36:39;;;;;;;3.67;2.28;;;;;;;7.52;88.97;97451.69;4988140;28;20227;-81
2021/01/30 02:39:19;;;;;;;2.97;2.40;;;;;;;7.54;89.39;97449.75;4981665;28;20290;-82
2021/01/30 02:42:18;;;;;;;7.05;2.40;;;;;;;7.52;89.19;97452.53;4986168;28;20297;-80
2021/01/30 02:44:53;;;;;;;2.67;2.25;;;;;;;7.52;89.32;97446.34;4975140;28;20306;-81
2021/01/30 02:47:23;;;;;;;4.93;2.15;;;;;;;7.49;89.03;97441.22;5013111;28;20688;-79
2021/01/30 02:49:59;;;;;;;2.88;2.38;;;;;;;7.55;89.29;97446.94;5003164;28;20321;-81
2021/01/30 02:52:27;;;;;;;4.78;2.55;;;;;;;7.45;88.84;97443.28;4975201;28;20265;-80
2021/01/30 02:54:56;;;;;;;3.00;2.40;;;;;;;7.49;88.95;97434.06;4983041;28;20275;-80
2021/01/30 02:57:24;;;;;;;8.85;3.03;;;;;;;7.54;88.44;97439.88;4975619;28;20367;-80
2021/01/30 02:59:54;;;;;;;5.03;2.30;;;;;;;7.61;87.84;97435.75;4977378;28;20226;-81
2021/01/30 03:02:22;;;;;;;7.00;2.58;;;;;;;7.64;86.81;97431.97;4980071;28;20206;-82
2021/01/30 03:04:55;;;;;;;5.15;2.38;;;;;;;7.68;86.75;97430.75;4995025;28;20840;-80
2021/01/30 03:07:44;;;;;;;2.38;2.00;;;;;;;7.73;86.20;97429.41;4975163;28;20223;-82
2021/01/30 03:10:37;;;;;;;6.82;2.50;;;;;;;7.68;85.48;97436.09;4946204;28;20248;-80
2021/01/30 03:13:20;;;;;;;5.25;1.95;;;;;;;7.69;85.27;97437.78;4994775;28;20269;-81
2021/01/30 03:15:54;;;;;;;7.38;2.30;;;;;;;7.73;85.47;97439.25;4973362;28;20277;-80
2021/01/30 03:18:25;;;;;;;3.17;1.92;;;;;;;7.73;85.11;97439.25;4987584;28;20222;-82
2021/01/30 03:20:52;;;;;;;11.88;2.72;;;;;;;7.68;85.27;97438.78;4973590;28;20231;-81
2021/01/30 03:23:20;;;;;;;11.60;2.85;;;;;;;7.64;85.68;97429.28;4963002;28;20207;-82
2021/01/30 03:25:47;;;;;;;3.47;2.35;;;;;;;7.63;85.34;97432.94;4994918;28;20239;-80
2021/01/30 03:28:15;;;;;;;5.63;3.05;;;;;;;7.65;85.30;97429.16;4993647;28;20296;-83
2021/01/30 03:30:46;;;;;;;9.73;2.72;;;;;;;7.70;85.61;97439.50;4997384;28;20222;-79
2021/01/30 03:33:13;;;;;;;3.40;2.25;;;;;;;7.73;85.87;97428.56;4996631;28;20242;-79
2021/01/30 03:35:39;;;;;;;5.63;3.35;;;;;;;7.77;85.89;97427.31;4988442;28;20226;-81
2021/01/30 03:38:06;;;;;;;4.57;2.30;;;;;;;7.87;85.09;97431.81;4994698;28;20187;-79
2021/01/30 03:40:32;;;;;;;6.35;2.72;;;;;;;7.88;85.53;97422.81;5017855;28;20218;-80
2021/01/30 03:43:01;;;;;;;5.55;2.58;;;;;;;7.87;85.20;97421.13;4981155;28;20258;-79
2021/01/30 03:45:30;;;;;;;4.72;2.65;;;;;;;7.88;84.65;97414.78;5002654;28;20265;-79
2021/01/30 03:47:57;;;;;;;4.88;2.63;;;;;;;7.81;84.90;97410.06;5008967;28;20231;-82
2021/01/30 03:50:23;;;;;;;5.85;2.30;;;;;;;7.79;84.61;97412.00;4984161;28;20860;-81
2021/01/30 03:52:49;;;;;;;4.10;2.10;;;;;;;7.74;84.75;97409.72;5000803;28;20222;-80
2021/01/30 03:55:16;;;;;;;2.13;1.77;;;;;;;7.74;84.76;97408.84;5003279;28;20233;-78
2021/01/30 03:57:43;;;;;;;6.43;2.35;;;;;;;7.76;84.67;97409.56;5021383;28;20210;-82
2021/01/30 04:00:13;;;;;;;3.42;1.95;;;;;;;7.76;84.06;97402.41;4988385;28;20226;-79
2021/01/30 04:02:40;;;;;;;3.97;2.33;;;;;;;7.72;83.79;97397.44;4996236;28;20191;-80
2021/01/30 04:05:09;;;;;;;9.80;2.85;;;;;;;7.72;84.00;97400.13;4998291;28;20223;-80
2021/01/30 04:07:36;;;;;;;8.07;2.63;;;;;;;7.77;83.72;97393.41;4975577;28;20230;-81
2021/01/30 04:10:06;;;;;;;3.58;2.40;;;;;;;7.79;83.62;97398.63;4975782;28;20227;-81
2021/01/30 04:12:33;;;;;;;6.07;2.30;;;;;;;7.82;83.67;97385.00;4971722;28;20622;-81
2021/01/30 04:15:00;;;;;;;7.40;2.88;;;;;;;7.89;82.95;97386.19;4974460;28;20246;-81
2021/01/30 04:17:26;;;;;;;4.75;1.92;;;;;;;7.83;82.09;97397.41;4975826;28;20199;-81
2021/01/30 04:19:53;;;;;;;6.20;2.83;;;;;;;7.87;82.55;97390.81;4969621;28;20190;-78
2021/01/30 04:22:19;;;;;;;6.88;2.88;;;;;;;7.84;82.49;97388.41;5005084;28;20226;-81
2021/01/30 04:24:45;;;;;;;11.43;3.85;;;;;;;7.90;82.31;97387.91;5027516;28;20229;-77
2021/01/30 04:27:13;;;;;;;4.68;2.47;;;;;;;7.81;81.26;97388.66;4990302;28;20234;-80
2021/01/30 04:29:41;;;;;;;8.90;3.33;;;;;;;7.81;81.52;97394.00;4995042;28;20216;-80
2021/01/30 04:32:08;;;;;;;8.73;3.20;;;;;;;7.88;81.27;97387.16;4982213;28;20208;-83
2021/01/30 04:34:34;;;;;;;7.13;3.17;;;;;;;7.86;79.99;97381.09;4989411;28;20840;-80
2021/01/30 04:37:01;;;;;;;8.98;3.20;;;;;;;7.90;79.98;97385.25;4994968;28;20222;-80
2021/01/30 04:39:27;;;;;;;8.63;3.00;;;;;;;7.90;80.00;97393.25;4979388;28;20218;-80
2021/01/30 04:42:03;;;;;;;7.95;3.70;;;;;;;7.85;80.18;97380.25;4985564;28;20228;-80
2021/01/30 04:45:07;;;;;;;10.18;3.60;;;;;;;7.84;80.66;97391.09;4999047;28;20240;-80
2021/01/30 04:47:43;;;;;;;11.98;4.00;;;;;;;7.88;80.30;97389.84;5004482;28;20266;-78
2021/01/30 04:50:31;;;;;;;12.00;3.75;;;;;;;7.91;80.42;97392.28;5015773;28;20167;-77
2021/01/30 04:53:12;;;;;;;12.10;3.40;;;;;;;7.80;81.12;97389.63;5004973;28;20286;-80
2021/01/30 04:56:23;;;;;;;8.38;3.25;;;;;;;7.76;81.61;97391.72;4991701;28;20238;-82
2021/01/30 04:59:17;;;;;;;8.18;3.10;;;;;;;7.74;80.38;97382.09;4992726;28;20302;-79
2021/01/30 05:01:58;;;;;;;11.02;3.97;;;;;;;7.78;81.04;97384.41;4969071;28;20223;-82
2021/01/30 05:04:41;;;;;;;20.60;4.72;;;;;;;7.83;80.89;97384.00;4984525;28;20219;-78
2021/01/30 05:07:13;;;;;;;11.90;3.80;;;;;;;7.73;80.82;97383.09;5014879;28;20314;-80
2021/01/30 05:09:52;;;;;;;13.75;3.90;;;;;;;7.73;81.02;97380.41;5000550;28;20330;-79
2021/01/30 05:12:26;;;;;;;20.42;5.00;;;;;;;7.72;80.96;97374.19;5011537;28;20386;-80
2021/01/30 05:15:02;;;;;;;13.38;3.53;;;;;;;7.63;80.74;97376.78;5010982;28;20230;-79
2021/01/30 05:17:34;;;;;;;13.25;4.00;;;;;;;7.70;81.08;97372.63;4984183;28;20198;-79
2021/01/30 05:20:06;;;;;;;11.85;5.72;;;;;;;7.61;80.73;97376.06;4993569;28;20198;-81
2021/01/30 05:22:40;;;;;;;14.85;4.32;;;;;;;7.69;80.46;97374.47;4983715;28;20222;-81
2021/01/30 05:25:19;;;;;;;11.98;3.55;;;;;;;7.68;80.03;97377.25;4993317;28;20238;-79
2021/01/30 05:28:02;;;;;;;13.43;3.55;;;;;;;7.63;80.32;97380.31;4976967;28;20231;-81
2021/01/30 05:30:34;;;;;;;16.25;4.47;;;;;;;7.61;80.02;97376.91;4976691;28;20226;-80
2021/01/30 05:33:11;;;;;;;20.10;5.20;;;;;;;7.67;79.40;97376.44;4974353;28;20310;-80
2021/01/30 05:35:42;;;;;;;14.20;3.90;;;;;;;7.66;79.42;97373.88;5003844;28;20218;-80
2021/01/30 05:38:16;;;;;;;8.75;3.28;;;;;;;7.59;79.88;97360.13;4998782;28;20191;-80
2021/01/30 05:40:49;;;;;;;10.75;3.67;;;;;;;7.63;79.66;97363.41;5002226;28;20218;-80
2021/01/30 05:43:46;;;;;;;9.52;3.72;;;;;;;7.67;79.92;97359.50;4996274;28;20226;-82
2021/01/30 05:46:27;;;;;;;9.10;3.40;;;;;;;7.65;79.73;97356.97;4984096;28;20699;-81
2021/01/30 05:48:56;;;;;;;11.32;3.92;;;;;;;7.70;79.98;97352.09;4986958;28;20445;-80
2021/01/30 05:51:35;;;;;;;12.90;3.75;;;;;;;7.61;79.60;97352.84;4986194;28;20220;-80
2021/01/30 05:54:02;;;;;;;11.55;4.18;;;;;;;7.67;79.72;97349.69;4988453;28;20258;-81
2021/01/30 05:56:44;;;;;;;11.15;3.40;;;;;;;7.58;80.25;97344.22;4988606;28;20195;-80
2021/01/30 05:59:20;;;;;;;13.05;4.80;;;;;;;7.59;80.49;97341.41;4984290;28;20207;-80
2021/01/30 06:01:46;;;;;;;10.80;3.55;;;;;;;7.66;80.49;97347.94;4998360;28;20250;-77
2021/01/30 06:04:13;;;;;;;11.68;4.25;;;;;;;7.72;79.92;97346.63;4987998;28;20622;-80
2021/01/30 06:06:55;;;;;;;13.52;4.60;;;;;;;7.65;79.52;97340.91;4973766;28;20231;-80
2021/01/30 06:09:37;;;;;;;14.48;3.85;;;;;;;7.67;79.71;97343.47;4982858;28;20788;-80
2021/01/30 06:12:20;;;;;;;9.45;4.10;;;;;;;7.69;80.03;97333.47;4984454;28;20265;-80
2021/01/30 06:14:47;;;;;;;12.85;3.95;;;;;;;7.68;79.71;97337.13;5004807;28;20721;-79
2021/01/30 06:17:23;;;;;;;15.27;4.43;;;;;;;7.70;79.78;97333.34;4983739;28;20614;-81
2021/01/30 06:20:14;;;;;;;14.50;3.75;;;;;;;7.71;80.24;97329.69;5008581;28;20237;-79
2021/01/30 06:22:40;;;;;;;10.23;3.50;;;;;;;7.79;79.65;97326.41;5004164;28;20732;-80
2021/01/30 06:25:26;;;;;;;13.63;3.78;;;;;;;7.76;79.87;97323.97;5008470;28;20211;-80
2021/01/30 06:27:56;;;;;;;10.20;4.20;;;;;;;7.65;80.58;97324.03;4997987;28;20207;-80
2021/01/30 06:30:36;;;;;;;9.98;4.30;;;;;;;7.71;80.45;97318.19;5005707;28;20234;-80
2021/01/30 06:33:18;;;;;;;12.93;4.32;;;;;;;7.74;80.56;97323.25;4985876;28;20230;-82
2021/01/30 06:35:44;;;;;;;11.20;3.80;;;;;;;7.75;80.63;97327.63;4997083;28;20218;-80
2021/01/30 06:38:17;;;;;;;9.70;4.35;;;;;;;7.81;80.71;97313.75;4988503;28;20674;-82
2021/01/30 06:40:56;;;;;;;15.70;5.55;;;;;;;7.88;80.66;97320.28;4973616;28;20705;-80
2021/01/30 06:43:46;;;;;;;10.18;5.50;;;;;;;7.87;80.34;97310.56;4991361;28;20216;-80
2021/01/30 06:46:17;;;;;;;12.60;4.20;;;;;;;7.84;80.59;97316.19;4992236;28;20570;-80
2021/01/30 06:48:48;;;;;;;12.38;4.28;;;;;;;7.90;80.49;97310.31;4976785;28;20223;-81
2021/01/30 06:51:29;;;;;;;16.05;5.18;;;;;;;7.88;80.12;97314.94;4976128;28;20246;-81
2021/01/30 06:54:14;;;;;;;18.55;5.28;;;;;;;7.75;80.56;97308.91;4961647;28;20253;-81
2021/01/30 06:56:40;;;;;;;12.50;4.70;;;;;;;7.82;81.00;97304.72;4980665;28;20195;-81
2021/01/30 06:59:15;;;;;;;15.40;5.22;;;;;;;7.87;79.99;97302.53;5001965;28;20199;-79
2021/01/30 07:01:47;;;;;;;12.10;5.18;;;;;;;7.88;80.06;97307.75;4989122;28;20214;-80
2021/01/30 07:04:20;;;;;;;13.70;5.25;;;;;;;7.95;80.37;97313.44;4980087;28;20234;-82
2021/01/30 07:06:56;;;;;;;11.35;4.65;;;;;;;7.92;80.58;97305.69;4994616;28;20222;-81
2021/01/30 07:09:34;;;;;;;12.43;4.00;;;;;;;7.98;79.71;97313.19;4996253;28;20240;-80
2021/01/30 07:12:19;;;;;;;17.75;5.25;;;;;;;7.90;80.14;97313.00;4967660;28;20220;-81
2021/01/30 07:18:01;;;;;;;13.20;5.95;;;;;;;7.99;80.21;97302.38;4954348;28;20216;-82
2021/01/30 07:20:40;;;;;;;12.23;4.57;;;;;;;7.97;80.54;97298.13;4935120;29;20205;-82
2021/01/30 07:23:21;;;;;;;17.20;5.30;;;;;;;7.98;80.96;97303.31;4956828;29;20641;-82
2021/01/30 07:26:02;;;;;;;11.48;5.05;;;;;;;7.98;81.00;97295.28;4936562;28;20240;-83
2021/01/30 07:28:37;;;;;;;17.67;5.55;;;;;;;8.02;81.06;97295.88;4953408;29;20716;-82
2021/01/30 07:31:12;;;;;;;13.95;5.20;;;;;;;7.96;80.58;97291.91;4950270;28;20262;-83
2021/01/30 07:33:54;;;;;;;16.33;5.30;;;;;;;7.92;81.39;97286.94;4930527;28;20729;-83
2021/01/30 07:36:48;;;;;;;18.90;4.75;;;;;;;7.95;81.00;97290.22;4954577;28;20238;-82
2021/01/30 07:39:27;;;;;;;14.60;5.70;;;;;;;8.01;81.09;97295.06;4956028;28;20228;-81
2021/01/30 07:42:05;;;;;;;18.20;4.95;;;;;;;7.97;80.89;97298.13;4961673;28;20223;-81
2021/01/30 07:44:52;;;;;;;15.10;4.57;;;;;;;8.02;81.12;97291.38;4959455;28;20563;-82
2021/01/30 07:47:47;;;;;;;23.38;6.13;;;;;;;8.04;81.17;97293.94;4943273;29;20240;-83
2021/01/30 07:50:25;;;;;;;16.02;6.43;;;;;;;8.03;81.06;97300.28;4922834;29;20243;-82
2021/01/30 07:53:03;;;;;;;15.88;5.72;;;;;;;8.01;81.13;97286.16;4926218;29;20224;-82
2021/01/30 07:55:30;;;;;;;22.02;6.10;;;;;;;8.10;81.33;97286.22;4952704;28;20239;-80
2021/01/30 07:58:18;;;;;;;10.85;5.55;;;;;;;8.10;80.91;97282.72;4954292;28;20227;-82
2021/01/30 08:01:12;;;;;;;19.27;5.30;;;;;;;8.13;81.31;97279.78;4929541;28;20232;-81
2021/01/30 08:03:50;;;;;;;13.07;5.57;;;;;;;8.13;80.96;97287.81;4939191;28;20725;-81
2021/01/30 08:06:53;;;;;;;15.05;5.53;;;;;;;8.09;81.33;97281.00;4942708;28;20632;-81
2021/01/30 08:09:49;;;;;;;30.90;6.28;;;;;;;8.22;80.80;97277.19;4960096;28;20717;-81
2021/01/30 08:12:21;;;;;;;12.93;5.88;;;;;;;8.30;80.83;97269.34;4969841;28;20224;-81
2021/01/30 08:15:09;;;;;;;19.05;6.13;;;;;;;8.30;80.45;97268.50;4964699;28;20287;-81
2021/01/30 08:17:54;;;;;;;19.88;6.22;;;;;;;8.28;80.47;97263.28;4954042;28;20215;-81
2021/01/30 08:20:32;;;;;;;10.85;5.50;;;;;;;8.33;80.98;97265.56;4966295;28;20197;-82
2021/01/30 08:23:12;;;;;;;16.15;5.85;;;;;;;8.39;80.87;97257.00;4927755;29;20227;-81
2021/01/30 08:25:44;;;;;;;14.23;5.25;;;;;;;8.40;80.54;97264.91;4934952;28;20248;-82
2021/01/30 08:28:19;;;;;;;20.52;6.50;;;;;;;8.30;81.26;97255.97;4946826;29;20219;-81
2021/01/30 08:30:51;;;;;;;21.88;5.70;;;;;;;8.38;80.74;97260.66;4957932;28;20224;-81
2021/01/30 08:33:18;;;;;;;21.20;6.03;;;;;;;8.41;80.93;97263.94;4957904;29;20228;-81
2021/01/30 08:35:51;;;;;;;14.70;5.45;;;;;;;8.40;80.53;97258.69;4933118;28;20227;-81
2021/01/30 08:38:17;;;;;;;12.25;4.85;;;;;;;8.46;80.32;97250.13;4954551;28;20204;-81
2021/01/30 08:40:57;;;;;;;13.33;5.80;;;;;;;8.37;80.80;97249.09;4954631;28;20243;-81
2021/01/30 08:43:36;;;;;;;14.55;7.13;;;;;;;8.41;80.97;97255.88;4950264;28;20474;-81
2021/01/30 08:46:24;;;;;;;18.75;6.22;;;;;;;8.32;80.61;97250.47;4957274;28;20227;-81
2021/01/30 08:49:04;;;;;;;15.23;7.05;;;;;;;8.31;80.76;97251.47;4961364;28;20231;-81
2021/01/30 08:51:30;;;;;;;20.67;5.55;;;;;;;8.28;80.79;97260.59;4940088;29;20224;-82
2021/01/30 08:53:58;;;;;;;19.52;6.10;;;;;;;8.28;81.21;97259.75;4944809;28;20224;-82
2021/01/30 08:56:45;;;;;;;19.10;5.95;;;;;;;8.36;80.70;97255.44;4942379;29;20231;-81
2021/01/30 08:59:42;;;;;;;21.08;5.75;;;;;;;8.51;80.55;97250.59;4967933;28;20224;-81
2021/01/30 09:02:29;;;;;;;15.07;5.75;;;;;;;8.45;80.43;97251.97;4967482;29;20232;-81
2021/01/30 09:05:06;;;;;;;13.27;5.65;;;;;;;8.55;79.93;97246.69;4970791;29;20232;-81
2021/01/30 09:07:54;;;;;;;15.38;6.22;;;;;;;8.52;80.26;97246.91;4954925;29;20234;-81
2021/01/30 09:10:21;;;;;;;16.95;5.60;;;;;;;8.55;80.20;97249.34;4953824;29;20236;-82
2021/01/30 09:13:11;;;;;;;22.23;6.07;;;;;;;8.63;80.16;97254.88;4940961;29;20212;-80
2021/01/30 09:15:37;;;;;;;18.70;6.60;;;;;;;8.77;79.72;97244.66;4950409;28;21019;-81
2021/01/30 09:18:22;;;;;;;18.77;6.68;;;;;;;8.60;80.23;97244.41;4940012;29;20298;-80
2021/01/30 09:20:56;;;;;;;17.17;6.38;;;;;;;8.79;79.73;97239.13;4962835;28;20287;-80
2021/01/30 09:23:29;;;;;;;22.05;7.45;;;;;;;8.83;79.80;97236.06;4943418;29;20193;-80
2021/01/30 09:26:01;;;;;;;23.58;7.25;;;;;;;8.72;79.13;97241.53;4947430;29;20267;-80
2021/01/30 09:28:30;;;;;;;11.02;5.38;;;;;;;8.77;78.68;97243.78;4961797;28;20246;-80
2021/01/30 09:31:15;;;;;;;13.27;5.78;;;;;;;8.79;78.69;97239.13;4961429;28;20223;-80
2021/01/30 09:34:07;;;;;;;17.65;7.80;;;;;;;8.86;78.58;97227.75;4977403;28;20255;-80
2021/01/30 09:36:45;;;;;;;19.02;7.03;;;;;;;8.96;78.36;97225.97;4961351;29;20238;-80
2021/01/30 09:39:20;;;;;;;15.48;5.30;;;;;;;8.91;78.47;97227.34;4938492;28;20747;-80
2021/01/30 09:41:46;;;;;;;17.80;5.13;;;;;;;8.83;78.45;97224.50;4950648;29;20599;-81
2021/01/30 09:44:23;;;;;;;20.10;6.13;;;;;;;8.91;78.21;97228.19;4949552;29;20197;-81
2021/01/30 09:46:53;;;;;;;14.02;4.78;;;;;;;8.80;77.85;97216.75;4972338;28;20224;-81
2021/01/30 09:49:33;;;;;;;8.88;4.32;;;;;;;8.82;76.89;97212.91;4941036;28;20235;-80
2021/01/30 09:52:05;;;;;;;9.40;3.00;;;;;;;8.67;76.86;97225.00;4941306;28;20725;-81
2021/01/30 09:54:31;;;;;;;11.63;3.95;;;;;;;8.84;78.26;97215.47;4933739;29;20224;-81
2021/01/30 09:57:08;;;;;;;10.90;3.90;;;;;;;8.79;77.28;97218.56;4956026;28;20649;-81
2021/01/30 09:59:35;;;;;;;5.65;2.88;;;;;;;8.70;77.37;97218.53;4950159;28;20227;-84
2021/01/30 10:02:20;;;;;;;9.15;2.95;;;;;;;8.66;78.00;97219.78;4959737;28;20675;-83
2021/01/30 10:04:47;;;;;;;16.58;3.97;;;;;;;8.86;78.73;97221.56;4941286;29;20224;-81
2021/01/30 10:07:16;;;;;;;6.82;2.80;;;;;;;8.72;78.40;97221.91;4953863;29;20221;-82
2021/01/30 10:09:47;;;;;;;8.52;3.53;;;;;;;8.84;78.95;97224.38;4938749;29;20246;-83
2021/01/30 10:12:18;;;;;;;9.15;3.90;;;;;;;8.73;79.31;97220.91;4940194;28;20232;-87
2021/01/30 10:14:52;;;;;;;13.48;3.17;;;;;;;8.71;79.14;97220.22;4934010;28;20207;-83
2021/01/30 10:17:37;;;;;;;6.95;3.42;;;;;;;8.59;79.58;97221.28;4941656;29;20565;-83
2021/01/30 10:20:08;;;;;;;5.03;2.60;;;;;;;8.53;80.58;97221.84;4959214;29;20228;-82
2021/01/30 10:22:39;;;;;;;9.00;3.03;;;;;;;8.50;80.01;97222.94;4983762;28;20219;-82
2021/01/30 10:25:10;;;;;;;6.18;3.10;;;;;;;8.37;81.14;97218.81;4974741;28;20239;-81
2021/01/30 10:27:36;;;;;;;7.90;2.70;;;;;;;8.22;81.59;97225.50;4987712;28;20223;-82
2021/01/30 10:30:07;;;;;;;7.55;3.10;;;;;;;8.36;81.81;97217.13;4970615;28;20231;-82
2021/01/30 10:32:47;;;;;;;6.20;4.30;;;;;;;8.26;81.83;97218.88;4940877;29;20213;-82
2021/01/30 10:35:36;;;;;;;10.20;3.17;;;;;;;8.30;82.05;97212.28;4963542;29;20224;-82
2021/01/30 10:38:08;;;;;;;7.85;3.28;;;;;;;8.23;82.60;97211.97;4971757;29;20267;-88
2021/01/30 10:40:42;;;;;;;6.75;3.17;;;;;;;8.33;82.10;97212.00;4951640;29;20315;-87
2021/01/30 10:43:17;;;;;;;4.50;2.35;;;;;;;8.32;82.42;97207.66;4961862;28;20223;-82
2021/01/30 10:45:51;;;;;;;7.18;3.60;;;;;;;8.33;83.32;97199.47;4966152;29;20246;-82
2021/01/30 10:48:21;;;;;;;7.22;3.20;;;;;;;8.39;83.19;97203.44;4956022;28;20228;-82
2021/01/30 10:51:04;;;;;;;6.65;2.92;;;;;;;8.37;82.66;97194.72;4957233;28;20236;-83
2021/01/30 10:53:37;;;;;;;9.23;3.00;;;;;;;8.27;82.63;97193.81;4935482;28;20354;-82
2021/01/30 10:56:19;;;;;;;11.30;4.05;;;;;;;8.31;83.84;97189.88;4938301;29;20228;-85
2021/01/30 10:58:51;;;;;;;6.60;3.75;;;;;;;8.17;82.88;97182.19;4955393;28;20227;-84
2021/01/30 11:01:17;;;;;;;6.30;3.22;;;;;;;8.09;83.14;97179.28;4948445;29;20231;-82
2021/01/30 11:03:51;;;;;;;3.42;2.40;;;;;;;8.17;83.29;97177.66;4951095;28;20230;-82
2021/01/30 11:06:34;;;;;;;8.45;2.90;;;;;;;8.22;83.32;97178.16;4948404;28;20228;-83
2021/01/30 11:09:13;;;;;;;10.77;3.00;;;;;;;8.25;82.81;97174.34;4951224;29;20231;-81
2021/01/30 11:11:39;;;;;;;5.80;3.38;;;;;;;8.40;83.37;97164.97;4940846;28;20207;-82
2021/01/30 11:14:27;;;;;;;10.65;3.38;;;;;;;8.39;83.04;97160.59;4938894;29;20639;-82
2021/01/30 11:16:55;;;;;;;4.82;2.42;;;;;;;8.27;80.45;97150.97;4932843;29;20291;-81
2021/01/30 11:19:25;;;;;;;6.32;3.55;;;;;;;8.33;80.78;97150.44;4941347;28;20220;-82
2021/01/30 11:22:26;;;;;;;7.20;3.00;;;;;;;8.53;82.19;97136.13;4940877;29;20275;-81
2021/01/30 11:25:07;;;;;;;4.22;2.67;;;;;;;8.58;80.30;97139.25;4962361;28;20255;-81
2021/01/30 11:27:33;;;;;;;5.68;3.40;;;;;;;8.68;81.09;97129.41;4953578;28;20216;-85
2021/01/30 11:30:18;;;;;;;4.50;2.33;;;;;;;8.90;80.95;97126.50;4966539;28;20212;-85
2021/01/30 11:33:09;;;;;;;5.68;2.95;;;;;;;9.05;81.77;97120.59;4966325;28;20200;-86
2021/01/30 11:35:41;;;;;;;4.78;2.30;;;;;;;8.96;80.21;97110.72;4956797;28;20216;-83
2021/01/30 11:38:18;;;;;;;6.45;3.42;;;;;;;8.97;80.00;97112.41;4969107;28;20176;-79
2021/01/30 11:40:45;;;;;;;4.00;3.20;;;;;;;9.10;80.11;97106.75;4932870;28;20223;-83
2021/01/30 11:43:13;;;;;;;7.93;3.25;;;;;;;8.96;79.50;97104.50;4956810;28;20290;-83
2021/01/30 11:45:43;;;;;;;5.25;3.03;;;;;;;9.01;80.43;97100.41;4947285;28;20450;-82
2021/01/30 11:48:11;;;;;;;5.05;2.65;;;;;;;9.04;81.52;97093.91;4956125;28;20654;-84
2021/01/30 11:50:38;;;;;;;5.25;2.60;;;;;;;9.15;81.84;97091.97;4968164;28;20239;-85
2021/01/30 11:53:11;;;;;;;8.38;2.50;;;;;;;9.34;78.53;97085.72;4937604;28;20270;-85
2021/01/30 11:55:39;;;;;;;10.20;4.90;;;;;;;9.19;81.00;97077.28;4937936;28;20219;-86
2021/01/30 11:58:05;;;;;;;12.88;4.53;;;;;;;9.16;81.22;97076.72;4949077;28;20228;-85
2021/01/30 12:00:59;;;;;;;8.55;3.50;;;;;;;9.11;80.04;97073.59;4956597;28;20199;-84
2021/01/30 12:03:28;;;;;;;6.13;3.78;;;;;;;9.21;81.15;97069.09;4939470;29;20318;-84
2021/01/30 12:05:56;;;;;;;6.32;4.00;;;;;;;9.42;80.60;97064.41;4951761;28;20766;-81
2021/01/30 12:08:23;;;;;;;15.60;5.97;;;;;;;9.35;81.97;97066.84;4955793;28;20216;-79
2021/01/30 12:10:50;;;;;;;8.90;4.13;;;;;;;9.42;81.98;97056.34;4969180;28;20216;-80
2021/01/30 12:13:17;;;;;;;5.70;3.53;;;;;;;9.47;82.25;97046.91;4957537;28;20740;-81
2021/01/30 12:15:44;;;;;;;8.00;5.90;;;;;;;9.50;81.50;97045.78;4941088;28;20256;-81
2021/01/30 12:18:15;;;;;;;5.38;3.42;;;;;;;9.39;81.22;97043.25;4943573;29;20192;-82